Time;durP1;ratioP1;P1;durP2;ratioP2;P2;SDS_P1;SDS_P2;PMS_P1;PMS_P2;Temp;Humidity;BMP_temperature;BMP_pressure;BME280_temperature;BME280_humidity;BME280_pressure;Samples;Min_cycle;Max_cycle;Signal;HPM_P1;HPM_P2
2022/10/18 00:01:16;;;;;;;8.15;5.47;;;19.70;97.80;;;;;;4998038;28;20042;-56
2022/10/18 00:04:02;;;;;;;8.73;5.55;;;19.70;97.80;;;;;;5005111;28;20398;-49
2022/10/18 00:06:48;;;;;;;7.03;5.68;;;19.70;97.80;;;;;;5003349;28;20517;-55
2022/10/18 00:09:34;;;;;;;8.07;6.05;;;19.70;97.90;;;;;;5011119;28;20037;-56
2022/10/18 00:12:20;;;;;;;10.35;7.70;;;19.70;97.80;;;;;;5009768;28;20080;-54
2022/10/18 00:15:06;;;;;;;8.85;5.22;;;19.60;97.90;;;;;;5010236;28;20038;-52
2022/10/18 00:17:52;;;;;;;8.02;5.65;;;19.60;98.00;;;;;;5011275;28;20033;-54
2022/10/18 00:20:38;;;;;;;11.32;6.03;;;19.60;97.90;;;;;;4992130;28;20041;-54
2022/10/18 00:23:25;;;;;;;7.80;5.40;;;19.60;98.00;;;;;;4992416;28;20168;-53
2022/10/18 00:26:14;;;;;;;8.35;4.93;;;19.50;98.00;;;;;;4984098;28;20038;-55
2022/10/18 00:29:03;;;;;;;11.20;5.57;;;19.40;98.10;;;;;;5010750;28;20080;-56
2022/10/18 00:31:49;;;;;;;6.88;5.60;;;19.30;98.10;;;;;;5011180;28;20030;-55
2022/10/18 00:34:36;;;;;;;9.88;6.38;;;19.30;98.20;;;;;;4992312;28;20034;-52
2022/10/18 00:37:22;;;;;;;8.95;6.60;;;19.20;98.40;;;;;;5001334;28;20026;-53
2022/10/18 00:40:08;;;;;;;10.73;7.55;;;19.20;98.60;;;;;;5011532;28;20022;-50
2022/10/18 00:42:54;;;;;;;12.70;7.10;;;19.20;98.70;;;;;;5011008;28;20089;-53
2022/10/18 00:45:40;;;;;;;10.43;5.95;;;19.20;98.70;;;;;;5011204;28;20116;-50
2022/10/18 00:48:26;;;;;;;11.50;6.30;;;19.30;98.80;;;;;;5009553;28;20029;-50
2022/10/18 00:51:12;;;;;;;8.35;5.63;;;19.30;98.70;;;;;;5009815;28;20030;-51
2022/10/18 00:53:59;;;;;;;9.48;5.97;;;19.40;98.70;;;;;;5008474;28;20502;-50
2022/10/18 00:56:45;;;;;;;9.57;5.95;;;19.40;98.60;;;;;;5005098;28;20041;-53
2022/10/18 00:59:31;;;;;;;10.70;7.88;;;19.40;98.50;;;;;;5011165;28;20037;-51
2022/10/18 01:02:17;;;;;;;30.38;18.30;;;19.40;98.70;;;;;;5006448;28;20112;-52
2022/10/18 01:05:04;;;;;;;15.52;10.05;;;19.40;99.00;;;;;;5011210;28;20438;-49
2022/10/18 01:08:28;;;;;;;18.17;12.40;;;19.30;98.90;;;;;;5006015;28;20446;-57
2022/10/18 01:11:23;;;;;;;11.65;8.38;;;19.40;99.10;;;;;;5011494;28;20470;-55
2022/10/18 01:14:18;;;;;;;10.57;6.28;;;19.40;99.10;;;;;;5012367;28;20403;-53
2022/10/18 01:17:23;;;;;;;8.93;6.00;;;19.40;98.80;;;;;;5008791;28;20390;-55
2022/10/18 01:20:18;;;;;;;9.32;5.75;;;19.40;99.00;;;;;;5011531;28;20034;-56
2022/10/18 01:23:15;;;;;;;;;;;19.40;99.00;;;;;;5010728;28;20033;-53
2022/10/18 01:26:07;;;;;;;9.48;6.00;;;19.30;99.10;;;;;;5010609;28;20012;-51
2022/10/18 01:29:11;;;;;;;6.75;5.90;;;19.30;99.10;;;;;;5010023;28;20669;-54
2022/10/18 01:32:02;;;;;;;8.03;6.40;;;19.30;99.20;;;;;;5010305;28;20030;-56
2022/10/18 01:34:51;;;;;;;11.02;5.88;;;19.20;99.30;;;;;;5010718;28;20026;-54
2022/10/18 01:37:38;;;;;;;8.55;6.80;;;19.30;99.40;;;;;;5007045;28;20022;-56
2022/10/18 01:40:25;;;;;;;9.27;5.88;;;19.20;99.60;;;;;;5010582;28;20417;-55
2022/10/18 01:43:12;;;;;;;10.40;7.22;;;19.20;99.60;;;;;;4994297;28;20432;-56
2022/10/18 01:46:00;;;;;;;8.43;6.38;;;19.30;99.60;;;;;;5009401;28;20030;-56
2022/10/18 01:48:46;;;;;;;13.82;6.68;;;19.30;99.80;;;;;;5005195;28;20030;-53
2022/10/18 01:51:32;;;;;;;8.05;6.20;;;19.20;99.90;;;;;;5005217;28;20058;-55
2022/10/18 01:54:25;;;;;;;9.52;6.85;;;19.20;99.90;;;;;;5009523;28;20022;-55
2022/10/18 01:57:20;;;;;;;8.65;7.15;;;19.30;99.90;;;;;;5007959;28;20026;-54
2022/10/18 02:00:13;;;;;;;10.50;7.10;;;19.30;99.90;;;;;;5010215;28;20482;-51
2022/10/18 02:03:25;;;;;;;8.93;7.30;;;19.40;99.90;;;;;;5003893;28;20034;-53
2022/10/18 02:06:25;;;;;;;10.38;7.95;;;19.40;99.90;;;;;;5006551;28;20062;-50
2022/10/18 02:09:18;;;;;;;9.40;7.30;;;19.40;99.90;;;;;;5009231;28;20109;-51
2022/10/18 02:12:09;;;;;;;8.80;7.78;;;19.30;99.90;;;;;;5009867;28;20030;-52
2022/10/18 02:14:57;;;;;;;11.23;8.82;;;19.30;99.90;;;;;;4995448;28;20494;-53
2022/10/18 02:17:45;;;;;;;10.98;9.88;;;19.30;99.90;;;;;;4989140;28;20569;-51
2022/10/18 02:20:32;;;;;;;11.95;10.65;;;19.30;99.90;;;;;;5001646;28;20056;-54
2022/10/18 02:23:23;;;;;;;11.25;10.05;;;19.30;99.90;;;;;;5005344;28;20030;-55
2022/10/18 02:26:09;;;;;;;15.80;11.18;;;19.30;99.90;;;;;;5001735;28;20034;-54
2022/10/18 02:28:55;;;;;;;12.85;11.55;;;19.40;99.90;;;;;;5009840;28;20030;-57
2022/10/18 02:31:47;;;;;;;17.55;13.60;;;19.30;99.90;;;;;;5007575;28;20117;-56
2022/10/18 02:34:50;;;;;;;13.50;10.75;;;19.40;99.90;;;;;;5013609;28;20045;-55
2022/10/18 02:37:38;;;;;;;15.52;11.10;;;19.30;99.90;;;;;;4994211;28;20022;-53
2022/10/18 02:40:25;;;;;;;13.80;10.23;;;19.30;99.90;;;;;;4996721;28;20030;-54
2022/10/18 02:43:13;;;;;;;11.27;10.10;;;19.30;99.90;;;;;;5012954;28;20444;-55
2022/10/18 02:45:59;;;;;;;27.40;20.15;;;19.30;99.90;;;;;;5013765;28;20029;-52
2022/10/18 02:48:45;;;;;;;18.02;13.80;;;19.30;99.90;;;;;;5012656;28;20038;-53
2022/10/18 02:51:31;;;;;;;12.50;10.90;;;19.20;99.90;;;;;;5013035;28;20042;-54
2022/10/18 02:54:17;;;;;;;17.98;11.60;;;19.20;99.90;;;;;;4998203;28;20026;-56
2022/10/18 02:57:03;;;;;;;11.70;9.25;;;19.10;99.90;;;;;;5012380;28;20053;-53
2022/10/18 02:59:48;;;;;;;14.15;9.88;;;19.10;99.90;;;;;;5013263;28;20532;-54
2022/10/18 03:02:34;;;;;;;11.68;8.35;;;19.20;99.90;;;;;;5012788;28;20046;-53
2022/10/18 03:05:20;;;;;;;12.52;9.35;;;19.20;99.90;;;;;;5013054;28;20069;-51
2022/10/18 03:08:06;;;;;;;18.70;14.55;;;19.10;99.90;;;;;;5012310;28;20473;-51
2022/10/18 03:10:52;;;;;;;12.90;10.30;;;19.10;99.90;;;;;;5012601;28;20521;-54
2022/10/18 03:13:38;;;;;;;13.95;9.18;;;19.00;99.90;;;;;;5012261;28;20076;-53
2022/10/18 03:16:24;;;;;;;9.48;8.50;;;18.90;99.90;;;;;;5012843;28;20120;-56
2022/10/18 03:19:10;;;;;;;10.68;9.43;;;18.90;99.90;;;;;;5012471;28;20048;-54
2022/10/18 03:21:56;;;;;;;9.52;8.57;;;18.90;99.90;;;;;;4998116;28;20029;-49
2022/10/18 03:24:42;;;;;;;10.00;7.50;;;18.80;99.90;;;;;;5012930;28;20029;-49
2022/10/18 03:27:28;;;;;;;8.75;7.03;;;18.80;99.90;;;;;;5012968;28;20057;-51
2022/10/18 03:30:14;;;;;;;9.23;8.00;;;18.90;99.90;;;;;;4993291;28;20576;-55
2022/10/18 03:33:00;;;;;;;11.25;8.00;;;18.90;99.90;;;;;;5000938;28;20410;-57
2022/10/18 03:35:46;;;;;;;10.60;8.98;;;18.90;99.90;;;;;;4997481;28;20109;-56
2022/10/18 03:38:32;;;;;;;10.02;8.98;;;18.90;99.90;;;;;;5011010;28;20026;-57
2022/10/18 03:41:19;;;;;;;12.35;9.93;;;18.80;99.90;;;;;;5011679;28;20030;-57
2022/10/18 03:44:05;;;;;;;11.15;8.50;;;18.80;99.90;;;;;;5010903;28;20085;-56
2022/10/18 03:46:51;;;;;;;16.88;12.73;;;18.70;99.90;;;;;;5011897;28;20041;-54
2022/10/18 03:49:37;;;;;;;16.90;10.85;;;18.70;99.90;;;;;;5012347;28;20033;-58
2022/10/18 03:52:23;;;;;;;15.05;11.90;;;18.70;99.90;;;;;;4997221;28;20087;-58
2022/10/18 03:55:09;;;;;;;14.00;12.55;;;18.60;99.90;;;;;;5012006;28;20030;-60
2022/10/18 03:57:55;;;;;;;16.85;14.32;;;18.60;99.90;;;;;;5011100;28;20030;-57
2022/10/18 04:00:40;;;;;;;18.92;14.38;;;18.60;99.90;;;;;;5012135;28;20044;-57
2022/10/18 04:03:26;;;;;;;16.27;14.63;;;18.60;99.90;;;;;;5011619;28;20026;-55
2022/10/18 04:06:12;;;;;;;13.93;12.52;;;18.60;99.90;;;;;;4997658;28;20030;-55
2022/10/18 04:08:58;;;;;;;17.58;13.65;;;18.50;99.90;;;;;;5011608;28;20030;-52
2022/10/18 04:11:44;;;;;;;16.95;13.18;;;18.50;99.90;;;;;;5007770;28;20037;-56
2022/10/18 04:14:30;;;;;;;13.02;11.65;;;18.50;99.90;;;;;;5012068;28;20053;-55
2022/10/18 04:17:16;;;;;;;16.58;11.88;;;18.30;99.90;;;;;;5011784;28;20030;-58
2022/10/18 04:20:02;;;;;;;12.77;10.95;;;18.30;99.90;;;;;;5003614;28;20041;-57
2022/10/18 04:22:48;;;;;;;14.10;12.18;;;18.30;99.90;;;;;;5006263;28;20502;-55
2022/10/18 04:25:34;;;;;;;15.20;13.52;;;18.30;99.90;;;;;;5011540;28;20461;-67
2022/10/18 04:28:20;;;;;;;17.55;14.13;;;18.30;99.90;;;;;;4995089;28;20506;-65
2022/10/18 04:31:06;;;;;;;16.35;14.05;;;18.30;99.90;;;;;;5006370;28;20061;-64
2022/10/18 04:33:52;;;;;;;16.52;13.52;;;18.30;99.90;;;;;;5007831;28;20018;-62
2022/10/18 04:36:38;;;;;;;19.95;14.07;;;18.30;99.90;;;;;;5011265;28;20026;-60
2022/10/18 04:39:24;;;;;;;15.52;14.02;;;18.30;99.90;;;;;;5009327;28;20113;-62
2022/10/18 04:42:10;;;;;;;14.15;12.65;;;18.30;99.90;;;;;;4990998;28;20518;-60
2022/10/18 04:44:56;;;;;;;14.20;11.65;;;18.30;99.90;;;;;;5011161;28;20041;-62
2022/10/18 04:47:42;;;;;;;13.68;11.00;;;18.30;99.90;;;;;;4982006;28;20092;-60
2022/10/18 04:50:28;;;;;;;13.93;12.43;;;18.40;99.90;;;;;;4993391;28;20486;-60
2022/10/18 04:53:15;;;;;;;14.45;12.27;;;18.40;99.90;;;;;;4988200;28;20245;-61
2022/10/18 04:56:01;;;;;;;13.45;11.73;;;18.40;99.90;;;;;;5002933;28;20506;-60
2022/10/18 04:58:47;;;;;;;18.48;14.43;;;18.40;99.90;;;;;;4996041;28;20037;-59
2022/10/18 05:01:33;;;;;;;14.40;12.88;;;18.40;99.90;;;;;;5008028;28;20107;-60
2022/10/18 05:04:19;;;;;;;17.60;14.43;;;18.50;99.90;;;;;;4994556;28;20120;-61
2022/10/18 05:07:05;;;;;;;20.13;15.60;;;18.50;99.90;;;;;;5010664;28;20026;-63
2022/10/18 05:09:51;;;;;;;20.25;16.60;;;18.40;99.90;;;;;;4992295;28;20030;-64
2022/10/18 05:12:37;;;;;;;19.98;15.40;;;18.40;99.90;;;;;;5005206;28;20026;-68
2022/10/18 05:15:23;;;;;;;16.98;15.20;;;18.40;99.90;;;;;;4993048;28;20478;-65
2022/10/18 05:18:09;;;;;;;20.92;15.10;;;18.40;99.90;;;;;;4968681;28;20046;-64
2022/10/18 05:20:56;;;;;;;20.00;16.45;;;18.40;99.90;;;;;;5010512;28;20030;-58
2022/10/18 05:23:42;;;;;;;23.52;20.60;;;18.40;99.90;;;;;;5010339;28;20060;-63
2022/10/18 05:26:28;;;;;;;28.15;21.02;;;18.30;99.90;;;;;;4990329;28;20035;-60
2022/10/18 05:29:14;;;;;;;25.50;21.45;;;18.20;99.90;;;;;;5008008;28;20037;-58
2022/10/18 05:32:00;;;;;;;24.25;20.67;;;18.20;99.90;;;;;;5008628;28;20512;-60
2022/10/18 05:34:46;;;;;;;29.08;23.10;;;18.10;99.90;;;;;;5006288;28;20418;-60
2022/10/18 05:37:32;;;;;;;29.60;24.23;;;18.10;99.90;;;;;;4992614;28;20128;-60
2022/10/18 05:40:17;;;;;;;29.08;24.63;;;18.00;99.90;;;;;;5008810;28;20046;-59
2022/10/18 05:43:03;;;;;;;26.40;23.50;;;18.00;99.90;;;;;;5008385;28;20026;-59
2022/10/18 05:45:50;;;;;;;30.77;25.10;;;17.90;99.90;;;;;;5008913;28;20065;-61
2022/10/18 05:48:36;;;;;;;29.83;23.55;;;18.00;99.90;;;;;;5006597;28;20034;-57
2022/10/18 05:51:22;;;;;;;24.20;21.58;;;18.00;99.90;;;;;;5007810;28;20594;-58
2022/10/18 05:54:12;;;;;;;24.25;21.45;;;18.10;99.90;;;;;;4999591;28;20030;-56
2022/10/18 05:56:58;;;;;;;26.15;23.40;;;18.20;99.90;;;;;;4989718;28;20034;-60
2022/10/18 05:59:44;;;;;;;28.85;24.13;;;18.20;99.90;;;;;;5007790;28;20056;-61
2022/10/18 06:02:30;;;;;;;29.77;26.08;;;18.20;99.90;;;;;;4994313;28;20034;-61
2022/10/18 06:05:16;;;;;;;26.15;23.15;;;18.20;99.90;;;;;;5012398;28;20038;-61
2022/10/18 06:08:02;;;;;;;31.73;24.83;;;18.10;99.90;;;;;;4999240;28;20494;-62
2022/10/18 06:10:48;;;;;;;27.60;23.15;;;18.10;99.90;;;;;;5016172;28;20030;-61
2022/10/18 06:13:48;;;;;;;27.15;24.05;;;18.00;99.90;;;;;;5000525;28;20082;-62
2022/10/18 06:16:34;;;;;;;28.00;22.92;;;17.90;99.90;;;;;;5002016;28;20550;-61
2022/10/18 06:19:20;;;;;;;27.67;24.40;;;17.90;99.90;;;;;;4992393;28;20034;-61
2022/10/18 06:22:06;;;;;;;25.90;21.70;;;17.90;99.90;;;;;;5001069;28;20030;-64
2022/10/18 06:24:52;;;;;;;25.17;22.48;;;17.80;99.90;;;;;;5006221;28;20033;-65
2022/10/18 06:27:38;;;;;;;26.60;21.77;;;17.80;99.90;;;;;;5019274;28;20150;-66
2022/10/18 06:30:24;;;;;;;26.63;22.67;;;17.80;99.90;;;;;;5004013;28;20109;-66
2022/10/18 06:33:12;;;;;;;26.65;21.55;;;17.80;99.90;;;;;;5019125;28;20105;-66
2022/10/18 06:36:01;;;;;;;26.95;22.60;;;17.80;99.90;;;;;;5015592;28;20018;-69
2022/10/18 06:38:47;;;;;;;23.88;20.48;;;17.80;99.90;;;;;;5006651;28;20084;-65
2022/10/18 06:41:33;;;;;;;23.20;20.40;;;17.70;99.90;;;;;;4989639;28;20029;-65
2022/10/18 06:44:20;;;;;;;25.08;21.27;;;17.70;99.90;;;;;;4992148;28;20038;-67
2022/10/18 06:47:07;;;;;;;23.02;20.52;;;17.70;99.90;;;;;;5005316;28;20089;-66
2022/10/18 06:49:53;;;;;;;26.40;22.63;;;17.80;99.90;;;;;;5019511;28;20041;-67
2022/10/18 06:52:40;;;;;;;25.42;21.15;;;17.60;99.90;;;;;;5019188;28;20034;-67
2022/10/18 06:55:26;;;;;;;27.25;22.40;;;17.50;99.90;;;;;;5007691;28;20505;-64
2022/10/18 06:58:12;;;;;;;28.15;22.52;;;17.50;99.90;;;;;;4980031;28;20082;-66
2022/10/18 07:00:58;;;;;;;23.33;20.27;;;17.50;99.90;;;;;;5004511;28;20034;-68
2022/10/18 07:03:46;;;;;;;20.60;18.35;;;17.50;99.90;;;;;;4986813;28;20035;-66
2022/10/18 07:06:32;;;;;;;21.02;18.48;;;17.50;99.90;;;;;;4998793;28;20402;-68
2022/10/18 07:09:20;;;;;;;21.88;16.83;;;17.50;99.90;;;;;;4982096;28;20087;-64
2022/10/18 07:12:06;;;;;;;24.38;18.60;;;17.50;99.90;;;;;;4999733;28;20038;-66
2022/10/18 07:14:52;;;;;;;21.63;17.58;;;17.50;99.90;;;;;;5012798;28;20053;-66
2022/10/18 07:17:38;;;;;;;18.98;16.67;;;17.60;99.90;;;;;;4985631;28;20503;-65
2022/10/18 07:20:24;;;;;;;19.45;16.55;;;17.50;99.90;;;;;;4986243;28;20033;-66
2022/10/18 07:23:10;;;;;;;18.88;15.30;;;17.40;99.90;;;;;;4993155;28;20038;-65
2022/10/18 07:25:56;;;;;;;21.33;17.10;;;17.50;99.90;;;;;;4987084;28;20041;-64
2022/10/18 07:28:44;;;;;;;22.50;18.45;;;17.40;99.90;;;;;;5010937;28;20042;-66
2022/10/18 07:31:30;;;;;;;18.55;15.63;;;17.40;99.90;;;;;;5009208;28;20041;-67
2022/10/18 07:34:16;;;;;;;17.80;15.90;;;17.50;99.90;;;;;;5002074;28;20041;-66
2022/10/18 07:37:02;;;;;;;15.68;14.07;;;17.40;99.90;;;;;;4999784;28;20502;-67
2022/10/18 07:39:48;;;;;;;19.98;15.65;;;17.40;99.90;;;;;;5018451;28;20034;-65
2022/10/18 07:42:34;;;;;;;19.17;14.27;;;17.40;99.90;;;;;;4990532;28;20058;-65
2022/10/18 07:45:21;;;;;;;20.92;17.45;;;17.40;99.90;;;;;;5004601;28;20026;-66
2022/10/18 07:48:07;;;;;;;20.88;16.45;;;17.50;99.90;;;;;;4990312;28;20034;-66
2022/10/18 07:50:53;;;;;;;18.55;15.90;;;17.50;99.90;;;;;;5003006;28;20430;-64
2022/10/18 07:53:39;;;;;;;16.67;14.85;;;17.50;99.90;;;;;;5019489;28;20119;-65
2022/10/18 07:56:25;;;;;;;15.10;13.48;;;17.50;99.90;;;;;;5005147;28;20061;-66
2022/10/18 07:59:11;;;;;;;16.73;14.95;;;17.40;99.90;;;;;;5007657;28;20029;-64
2022/10/18 08:02:00;;;;;;;15.98;14.27;;;17.30;99.90;;;;;;5013972;28;20445;-65
2022/10/18 08:04:46;;;;;;;16.50;14.48;;;17.30;99.90;;;;;;4986697;28;20029;-64
2022/10/18 08:07:32;;;;;;;21.27;18.48;;;17.40;99.90;;;;;;5006066;28;20022;-65
2022/10/18 08:10:18;;;;;;;16.83;14.05;;;17.30;99.90;;;;;;5019570;28;20034;-65
2022/10/18 08:13:04;;;;;;;14.45;11.85;;;17.20;99.90;;;;;;4997757;28;20116;-63
2022/10/18 08:15:50;;;;;;;11.82;9.70;;;17.10;99.90;;;;;;5013012;28;20068;-63
2022/10/18 08:18:37;;;;;;;11.20;9.55;;;17.00;99.90;;;;;;4998014;28;20094;-64
2022/10/18 08:21:23;;;;;;;11.35;9.77;;;17.00;99.90;;;;;;4997714;28;20554;-64
2022/10/18 08:24:09;;;;;;;12.38;10.00;;;16.90;99.90;;;;;;5012486;28;20530;-63
2022/10/18 08:26:55;;;;;;;12.38;10.23;;;16.90;99.90;;;;;;5012222;28;20477;-63
2022/10/18 08:29:41;;;;;;;11.57;9.27;;;16.90;99.90;;;;;;5011360;28;20029;-61
2022/10/18 08:32:28;;;;;;;10.70;8.82;;;17.00;99.90;;;;;;4996106;28;20022;-61
2022/10/18 08:35:14;;;;;;;9.82;8.60;;;16.90;99.90;;;;;;5011195;28;20033;-61
2022/10/18 08:38:00;;;;;;;9.95;8.93;;;16.90;99.90;;;;;;5011521;28;20049;-64
2022/10/18 08:40:46;;;;;;;11.38;7.88;;;16.80;99.90;;;;;;4997405;28;20041;-63
2022/10/18 08:43:42;;;;;;;9.95;8.95;;;16.90;99.90;;;;;;5011186;28;20030;-63
2022/10/18 08:46:29;;;;;;;9.98;8.35;;;16.90;99.90;;;;;;5011586;28;20672;-62
2022/10/18 08:49:35;;;;;;;7.22;6.05;;;16.90;99.90;;;;;;4996841;28;20033;-60
2022/10/18 08:52:56;;;;;;;8.77;6.15;;;16.80;99.90;;;;;;4998753;28;20450;-61
2022/10/18 08:55:47;;;;;;;7.22;5.20;;;16.70;99.90;;;;;;4965043;28;20112;-64
2022/10/18 08:58:44;;;;;;;8.93;6.75;;;16.60;99.90;;;;;;5014356;28;20025;-66
2022/10/18 09:01:45;;;;;;;8.05;6.00;;;16.60;99.90;;;;;;5001548;28;20089;-65
2022/10/18 09:04:59;;;;;;;5.93;5.32;;;16.70;99.90;;;;;;5014827;28;20053;-65
2022/10/18 09:07:50;;;;;;;7.63;5.45;;;16.70;99.90;;;;;;5012193;28;20044;-64
2022/10/18 09:10:48;;;;;;;6.13;5.53;;;16.80;99.90;;;;;;5011110;28;20038;-63
2022/10/18 09:13:49;;;;;;;7.32;5.40;;;16.70;99.90;;;;;;5010747;28;20044;-62
2022/10/18 09:16:43;;;;;;;7.85;6.53;;;16.70;99.90;;;;;;5010684;28;20100;-63
2022/10/18 09:20:04;;;;;;;5.90;5.27;;;16.80;99.90;;;;;;5011239;28;20033;-62
2022/10/18 09:23:01;;;;;;;5.55;4.97;;;16.80;99.90;;;;;;5010716;28;20057;-61
2022/10/18 09:26:08;;;;;;;5.13;4.63;;;16.90;99.90;;;;;;5010943;28;20094;-62
2022/10/18 09:29:19;;;;;;;5.82;4.50;;;17.00;99.90;;;;;;5008928;28;20052;-62
2022/10/18 09:32:43;;;;;;;5.28;4.43;;;17.00;99.90;;;;;;5003042;28;20089;-61
2022/10/18 09:35:53;;;;;;;4.90;3.90;;;16.90;99.90;;;;;;4995533;28;20093;-60
2022/10/18 09:39:13;;;;;;;5.50;4.10;;;17.00;99.90;;;;;;5011016;28;20116;-61
2022/10/18 09:42:10;;;;;;;5.35;4.10;;;16.90;99.90;;;;;;5008516;28;20042;-60
2022/10/18 09:45:03;;;;;;;5.45;4.82;;;17.00;99.90;;;;;;5013382;28;20045;-59
2022/10/18 09:48:10;;;;;;;5.68;3.92;;;17.00;99.90;;;;;;5009742;28;20080;-59
2022/10/18 09:50:59;;;;;;;5.60;4.05;;;17.00;99.90;;;;;;5008331;28;20489;-59
2022/10/18 09:54:10;;;;;;;6.72;4.70;;;17.00;99.90;;;;;;5014215;28;20018;-60
2022/10/18 09:57:22;;;;;;;5.57;4.25;;;17.10;99.90;;;;;;4999743;28;20037;-59
2022/10/18 10:00:17;;;;;;;4.85;3.70;;;17.10;99.90;;;;;;5003196;28;20682;-60
2022/10/18 10:03:11;;;;;;;6.60;4.55;;;17.20;99.90;;;;;;5013755;28;20112;-60
2022/10/18 10:06:16;;;;;;;6.10;4.40;;;17.30;99.90;;;;;;5006019;28;20034;-60
2022/10/18 10:09:13;;;;;;;5.63;4.30;;;17.20;99.90;;;;;;5003015;28;20034;-60
2022/10/18 10:11:59;;;;;;;4.65;3.78;;;17.30;99.90;;;;;;5008359;28;20475;-59
2022/10/18 10:14:45;;;;;;;4.07;3.67;;;17.20;99.90;;;;;;5002333;28;20037;-58
2022/10/18 10:17:32;;;;;;;5.38;4.45;;;17.40;99.90;;;;;;5012741;28;20037;-59
2022/10/18 10:20:27;;;;;;;5.18;4.10;;;17.40;99.90;;;;;;5013677;28;20045;-55
2022/10/18 10:23:21;;;;;;;5.22;3.88;;;17.50;99.90;;;;;;4998114;28;20033;-59
2022/10/18 10:26:30;;;;;;;7.03;4.07;;;17.40;99.90;;;;;;5015089;28;20069;-58
2022/10/18 10:29:46;;;;;;;5.35;4.00;;;17.30;99.90;;;;;;4995145;28;20034;-59
2022/10/18 10:32:45;;;;;;;5.00;3.50;;;17.30;99.90;;;;;;5004423;28;20026;-57
2022/10/18 10:35:33;;;;;;;5.32;3.95;;;17.30;99.90;;;;;;5018823;28;20026;-59
2022/10/18 10:38:24;;;;;;;4.95;4.45;;;17.30;99.90;;;;;;5022236;28;20033;-60
2022/10/18 10:41:22;;;;;;;4.82;4.00;;;17.40;99.90;;;;;;5020899;28;20414;-60
2022/10/18 10:44:35;;;;;;;4.25;3.10;;;17.40;99.90;;;;;;5013924;28;20030;-59
2022/10/18 10:47:47;;;;;;;4.97;3.97;;;17.60;99.90;;;;;;5013617;28;20096;-61
2022/10/18 10:50:51;;;;;;;6.80;4.57;;;17.60;99.90;;;;;;4979780;28;20137;-59
2022/10/18 10:53:51;;;;;;;4.95;3.58;;;17.60;99.90;;;;;;4992936;28;20053;-59
2022/10/18 10:56:58;;;;;;;14.02;9.02;;;17.70;99.90;;;;;;4993340;28;20019;-63
2022/10/18 10:59:44;;;;;;;6.30;4.68;;;17.70;99.90;;;;;;5013523;28;20097;-61
2022/10/18 11:02:35;;;;;;;4.82;4.32;;;17.50;99.90;;;;;;5021403;28;20018;-60
2022/10/18 11:05:28;;;;;;;5.30;4.70;;;17.50;99.90;;;;;;5024193;28;20030;-60
2022/10/18 11:08:18;;;;;;;4.75;4.28;;;17.30;99.90;;;;;;5018629;28;20104;-61
2022/10/18 11:11:13;;;;;;;4.88;4.18;;;17.10;99.90;;;;;;4999036;28;20030;-60
2022/10/18 11:14:20;;;;;;;7.35;4.80;;;17.20;99.90;;;;;;5016875;28;20038;-58
2022/10/18 11:17:33;;;;;;;6.13;4.47;;;17.30;99.90;;;;;;5017105;28;20092;-60
2022/10/18 11:20:36;;;;;;;6.55;4.90;;;17.00;99.90;;;;;;5021538;28;20041;-62
2022/10/18 11:23:31;;;;;;;8.07;4.88;;;17.00;99.90;;;;;;4998199;28;20038;-58
2022/10/18 11:26:51;;;;;;;6.38;4.63;;;17.00;99.90;;;;;;5009428;28;20080;-61
2022/10/18 11:29:46;;;;;;;5.13;4.63;;;17.20;99.90;;;;;;5012192;28;20513;-60
2022/10/18 11:33:02;;;;;;;6.07;5.25;;;17.10;99.90;;;;;;4999591;28;20026;-60
2022/10/18 11:36:12;;;;;;;5.72;4.97;;;17.20;99.90;;;;;;5012576;28;20654;-58
2022/10/18 11:39:23;;;;;;;6.50;5.35;;;17.20;99.90;;;;;;5012497;28;20533;-59
2022/10/18 11:42:14;;;;;;;7.65;5.72;;;17.20;99.90;;;;;;5011154;28;20112;-57
2022/10/18 11:45:25;;;;;;;7.38;5.65;;;17.20;99.90;;;;;;4993612;28;20070;-57
2022/10/18 11:48:20;;;;;;;6.07;5.47;;;17.30;99.90;;;;;;4993496;28;20026;-60
2022/10/18 11:51:24;;;;;;;6.32;5.70;;;17.30;99.90;;;;;;5002488;28;20022;-61
2022/10/18 11:54:23;;;;;;;7.28;5.40;;;17.40;99.90;;;;;;5011975;28;20173;-61
2022/10/18 11:57:46;;;;;;;6.10;5.30;;;17.50;99.90;;;;;;5012650;28;20052;-58
2022/10/18 12:00:54;;;;;;;6.38;5.75;;;17.40;99.90;;;;;;5005393;28;20117;-58
2022/10/18 12:03:43;;;;;;;6.28;5.45;;;17.40;99.90;;;;;;4996104;28;20026;-59
2022/10/18 12:06:34;;;;;;;6.40;5.80;;;17.50;99.90;;;;;;5011448;28;20120;-61
2022/10/18 12:09:33;;;;;;;8.02;6.50;;;17.50;99.90;;;;;;5011635;28;20486;-56
2022/10/18 12:12:22;;;;;;;7.15;5.47;;;17.40;99.90;;;;;;5011099;28;20030;-66
2022/10/18 12:15:26;;;;;;;6.75;5.47;;;17.50;99.90;;;;;;5010634;28;20030;-59
2022/10/18 12:18:17;;;;;;;8.93;6.72;;;17.60;99.90;;;;;;4965072;28;20034;-60
2022/10/18 12:21:05;;;;;;;7.85;7.05;;;17.70;99.90;;;;;;4991882;28;20033;-59
2022/10/18 12:23:56;;;;;;;7.53;6.72;;;17.80;99.90;;;;;;4994085;28;20038;-61
2022/10/18 12:26:42;;;;;;;11.48;8.20;;;17.90;99.90;;;;;;5011660;28;20506;-59
2022/10/18 12:30:01;;;;;;;9.63;8.00;;;18.10;99.90;;;;;;4996675;28;20038;-59
2022/10/18 12:32:48;;;;;;;11.13;9.40;;;18.20;99.90;;;;;;5011613;28;20033;-58
2022/10/18 12:35:49;;;;;;;12.27;9.88;;;18.30;99.90;;;;;;5011818;28;20030;-60
2022/10/18 12:38:39;;;;;;;14.27;10.15;;;18.30;99.90;;;;;;5010977;28;20108;-60
2022/10/18 12:41:29;;;;;;;12.60;9.55;;;18.30;99.90;;;;;;5011302;28;20040;-59
2022/10/18 12:44:32;;;;;;;16.30;11.00;;;18.50;99.90;;;;;;5010058;28;20489;-60
2022/10/18 12:47:24;;;;;;;15.30;11.25;;;18.60;99.90;;;;;;5010705;28;20081;-60
2022/10/18 12:50:27;;;;;;;11.38;9.32;;;18.70;99.90;;;;;;4997123;28;20034;-59
2022/10/18 12:53:17;;;;;;;10.90;9.80;;;18.80;99.90;;;;;;5011438;28;20025;-59
2022/10/18 12:56:28;;;;;;;10.85;9.20;;;18.90;99.90;;;;;;5011079;28;20060;-60
2022/10/18 12:59:14;;;;;;;11.70;10.15;;;19.10;99.90;;;;;;4991021;28;20026;-59
2022/10/18 13:02:03;;;;;;;25.77;18.83;;;19.10;99.90;;;;;;4999129;28;20053;-61
2022/10/18 13:04:49;;;;;;;13.15;10.13;;;19.10;99.90;;;;;;5010942;28;20112;-61
2022/10/18 13:07:39;;;;;;;10.13;8.40;;;19.10;99.90;;;;;;4996232;28;20022;-60
2022/10/18 13:10:34;;;;;;;9.55;8.55;;;19.20;99.90;;;;;;5009761;28;20049;-59
2022/10/18 13:13:43;;;;;;;9.60;7.85;;;19.30;99.90;;;;;;5011451;28;20109;-58
2022/10/18 13:17:06;;;;;;;8.88;7.68;;;19.10;99.90;;;;;;5003176;28;20018;-59
2022/10/18 13:20:25;;;;;;;8.82;7.90;;;19.00;99.90;;;;;;4993717;28;20640;-56
2022/10/18 13:23:29;;;;;;;10.95;8.57;;;18.70;99.90;;;;;;5010281;28;20038;-56
2022/10/18 13:26:23;;;;;;;10.13;9.00;;;18.80;99.90;;;;;;5010139;28;20512;-58
2022/10/18 13:29:12;;;;;;;9.50;8.43;;;18.90;99.90;;;;;;5009203;28;20062;-58
2022/10/18 13:32:51;;;;;;;9.30;8.10;;;18.90;99.90;;;;;;4994838;28;20041;-60
2022/10/18 13:35:54;;;;;;;7.75;6.38;;;19.00;99.90;;;;;;4996769;28;20053;-59
2022/10/18 13:38:39;;;;;;;7.72;5.68;;;18.90;99.90;;;;;;4996032;28;20108;-58
2022/10/18 13:41:31;;;;;;;7.03;6.30;;;18.50;99.90;;;;;;5010479;28;20029;-58
2022/10/18 13:44:23;;;;;;;7.65;6.82;;;18.60;99.90;;;;;;4996179;28;20040;-57
2022/10/18 13:47:32;;;;;;;6.65;5.97;;;18.50;99.90;;;;;;5009646;28;20112;-57
2022/10/18 13:50:29;;;;;;;7.88;6.60;;;18.50;99.90;;;;;;5009614;28;20037;-58
2022/10/18 13:53:31;;;;;;;6.38;5.78;;;18.40;99.90;;;;;;5010298;28;20061;-58
2022/10/18 13:56:34;;;;;;;8.73;6.63;;;18.60;99.90;;;;;;5011022;28;20034;-60
2022/10/18 14:00:04;;;;;;;6.78;6.10;;;18.60;99.90;;;;;;4991655;28;20476;-58
2022/10/18 14:03:27;;;;;;;6.65;5.95;;;18.60;99.90;;;;;;4998677;28;20069;-58
2022/10/18 14:06:33;;;;;;;6.90;6.03;;;18.40;99.90;;;;;;5010562;28;20026;-59
2022/10/18 14:09:27;;;;;;;8.18;6.38;;;18.40;99.90;;;;;;5011332;28;20483;-57
2022/10/18 14:12:40;;;;;;;7.38;6.22;;;18.20;99.90;;;;;;5008894;28;20038;-59
2022/10/18 14:15:35;;;;;;;7.95;6.13;;;18.20;99.90;;;;;;4996955;28;20026;-57
2022/10/18 14:18:37;;;;;;;6.63;5.35;;;18.30;99.90;;;;;;5010292;28;20132;-59
2022/10/18 14:21:33;;;;;;;6.82;6.00;;;18.40;99.90;;;;;;4995256;28;20391;-60
2022/10/18 14:24:23;;;;;;;11.77;9.50;;;18.40;99.90;;;;;;5009938;28;20060;-58
2022/10/18 14:27:14;;;;;;;7.50;6.80;;;18.30;99.90;;;;;;5007074;28;20026;-56
2022/10/18 14:30:17;;;;;;;7.28;6.57;;;18.40;99.90;;;;;;4998577;28;20080;-59
2022/10/18 14:33:03;;;;;;;6.97;6.10;;;18.30;99.90;;;;;;5012640;28;20032;-61
2022/10/18 14:36:17;;;;;;;7.57;6.65;;;18.40;99.90;;;;;;5014005;28;20041;-55
2022/10/18 14:39:06;;;;;;;7.30;6.53;;;18.30;99.90;;;;;;4992830;28;20038;-57
2022/10/18 14:41:54;;;;;;;9.73;7.93;;;18.30;99.90;;;;;;4984566;28;20026;-59
2022/10/18 14:44:40;;;;;;;10.05;8.48;;;18.30;99.90;;;;;;5015441;28;20498;-56
2022/10/18 14:47:29;;;;;;;8.00;6.85;;;18.30;99.90;;;;;;5017215;28;20037;-57